createdAt,value
2023-01-29T00:02:05.805Z,96335.00
2023-01-29T00:06:10.055Z,96335.00
2023-01-29T00:10:14.902Z,96346.00
2023-01-29T00:14:17.983Z,96347.00
2023-01-29T00:18:20.781Z,96348.00
2023-01-29T00:22:23.782Z,96333.00
2023-01-29T00:26:28.731Z,96349.00
2023-01-29T00:30:31.524Z,96354.00
2023-01-29T00:34:34.334Z,96370.00
2023-01-29T00:38:37.794Z,96362.00
2023-01-29T00:42:59.293Z,96351.00
2023-01-29T00:47:02.570Z,96357.00
2023-01-29T00:51:05.520Z,96354.00
2023-01-29T00:55:10.639Z,96352.00
2023-01-29T00:59:14.925Z,96363.00
2023-01-29T01:03:18.264Z,96360.00
2023-01-29T01:07:23.306Z,96359.00
2023-01-29T01:11:29.549Z,96352.00
2023-01-29T01:15:36.653Z,96356.00
2023-01-29T01:19:39.398Z,96354.00
2023-01-29T01:23:42.131Z,96370.00
2023-01-29T01:27:45.040Z,96357.00
2023-01-29T01:31:49.233Z,96367.00
2023-01-29T01:35:53.159Z,96360.00
2023-01-29T01:39:58.635Z,96370.00
2023-01-29T01:44:03.587Z,96365.00
2023-01-29T01:48:12.994Z,96369.00
2023-01-29T01:52:17.011Z,96357.00
2023-01-29T01:56:23.752Z,96361.00
2023-01-29T02:00:27.836Z,96356.00
2023-01-29T02:04:49.186Z,96354.00
2023-01-29T02:09:16.237Z,96346.00
2023-01-29T02:13:20.085Z,96362.00
2023-01-29T02:17:22.996Z,96368.00
2023-01-29T02:21:48.158Z,96365.00
2023-01-29T02:26:05.781Z,96377.00
2023-01-29T02:30:18.256Z,96356.00
2023-01-29T02:34:32.622Z,96358.00
2023-01-29T02:38:46.248Z,96356.00
2023-01-29T02:42:54.119Z,96352.00
2023-01-29T02:47:05.090Z,96339.00
2023-01-29T02:51:12.481Z,96337.00
2023-01-29T02:55:22.081Z,96337.00
2023-01-29T02:59:29.430Z,96334.00
2023-01-29T03:03:37.220Z,96335.00
2023-01-29T03:07:46.071Z,96334.00
2023-01-29T03:12:19.946Z,96325.00
2023-01-29T03:16:29.408Z,96333.00
2023-01-29T03:20:37.075Z,96341.00
2023-01-29T03:25:02.522Z,96338.00
2023-01-29T03:29:28.787Z,96343.00
2023-01-29T03:33:36.584Z,96357.00
2023-01-29T03:37:45.838Z,96357.00
2023-01-29T03:41:54.127Z,96350.00
2023-01-29T03:46:04.713Z,96340.00
2023-01-29T03:50:15.218Z,96347.00
2023-01-29T03:54:26.350Z,96325.00
2023-01-29T03:58:38.318Z,96326.00
2023-01-29T04:02:50.196Z,96316.00
2023-01-29T04:06:57.620Z,96310.00
2023-01-29T04:11:08.070Z,96302.00
2023-01-29T04:15:15.621Z,96303.00
2023-01-29T04:19:19.289Z,96303.00
2023-01-29T04:23:24.596Z,96319.00
2023-01-29T04:27:41.190Z,96317.00
2023-01-29T04:31:51.514Z,96326.00
2023-01-29T04:36:07.207Z,96310.00
2023-01-29T04:40:19.778Z,96315.00
2023-01-29T04:44:34.466Z,96327.00
2023-01-29T04:48:50.270Z,96320.00
2023-01-29T04:52:59.807Z,96328.00
2023-01-29T04:57:10.756Z,96314.00
2023-01-29T05:01:18.523Z,96305.00
2023-01-29T05:05:22.210Z,96313.00
2023-01-29T05:09:26.538Z,96324.00
2023-01-29T05:13:32.341Z,96326.00
2023-01-29T05:17:36.551Z,96332.00
2023-01-29T05:21:41.297Z,96326.00
2023-01-29T05:25:45.314Z,96337.00
2023-01-29T05:29:48.874Z,96358.00
2023-01-29T05:33:52.965Z,96355.00
2023-01-29T05:37:56.347Z,96368.00
2023-01-29T05:41:59.872Z,96356.00
2023-01-29T05:46:02.787Z,96353.00
2023-01-29T05:50:08.127Z,96368.00
2023-01-29T05:54:12.398Z,96362.00
2023-01-29T05:58:15.362Z,96361.00
2023-01-29T06:02:18.126Z,96365.00
2023-01-29T06:06:22.302Z,96380.00
2023-01-29T06:10:25.349Z,96357.00
2023-01-29T06:14:28.307Z,96360.00
2023-01-29T06:18:31.054Z,96356.00
2023-01-29T06:22:35.320Z,96355.00
2023-01-29T06:26:38.058Z,96352.00
2023-01-29T06:30:40.778Z,96355.00
2023-01-29T06:34:43.536Z,96359.00
2023-01-29T06:38:47.818Z,96358.00
2023-01-29T06:42:50.535Z,96359.00
2023-01-29T06:46:53.259Z,96352.00
2023-01-29T06:50:56.036Z,96365.00
2023-01-29T06:55:00.201Z,96359.00
2023-01-29T06:59:03.111Z,96355.00
2023-01-29T07:03:06.287Z,96356.00
2023-01-29T07:07:13.331Z,96370.00
2023-01-29T07:11:17.734Z,96356.00
2023-01-29T07:15:21.360Z,96352.00
2023-01-29T07:19:24.272Z,96346.00
2023-01-29T07:23:27.051Z,96339.00
2023-01-29T07:27:31.248Z,96342.00
2023-01-29T07:31:34.213Z,96334.00
2023-01-29T07:35:39.330Z,96336.00
2023-01-29T07:39:42.142Z,96332.00
2023-01-29T07:43:46.306Z,96325.00
2023-01-29T07:47:53.567Z,96335.00
2023-01-29T07:51:56.346Z,96332.00
2023-01-29T07:55:59.160Z,96339.00
2023-01-29T08:00:03.319Z,96329.00
2023-01-29T08:04:15.087Z,96329.00
2023-01-29T08:08:19.306Z,96322.00
2023-01-29T08:12:22.299Z,96320.00
2023-01-29T08:16:26.497Z,96327.00
2023-01-29T08:20:29.336Z,96324.00
2023-01-29T08:24:41.814Z,96324.00
2023-01-29T08:28:54.928Z,96336.00
2023-01-29T08:32:59.480Z,96327.00
2023-01-29T08:37:02.282Z,96334.00
2023-01-29T08:41:05.467Z,96341.00
2023-01-29T08:45:09.551Z,96347.00
2023-01-29T08:49:13.801Z,96360.00
2023-01-29T08:53:16.605Z,96371.00
2023-01-29T08:57:19.432Z,96368.00
2023-01-29T09:01:22.271Z,96382.00
2023-01-29T09:05:26.558Z,96379.00
2023-01-29T09:09:29.334Z,96382.00
2023-01-29T09:13:32.170Z,96403.00
2023-01-29T09:17:35.085Z,96396.00
2023-01-29T09:21:39.267Z,96411.00
2023-01-29T09:25:44.011Z,96416.00
2023-01-29T09:29:46.822Z,96416.00
2023-01-29T09:33:49.603Z,96403.00
2023-01-29T09:37:54.073Z,96410.00
2023-01-29T09:42:02.412Z,96421.00
2023-01-29T09:46:08.592Z,96422.00
2023-01-29T09:50:17.447Z,96435.00
2023-01-29T09:54:25.547Z,96430.00
2023-01-29T09:58:33.046Z,96423.00
2023-01-29T10:02:56.094Z,96418.00
2023-01-29T10:07:12.533Z,96423.00
2023-01-29T10:11:21.934Z,96424.00
2023-01-29T10:15:47.659Z,96418.00
2023-01-29T10:20:12.094Z,96419.00
2023-01-29T10:24:27.145Z,96412.00
2023-01-29T10:28:35.762Z,96411.00
2023-01-29T10:32:38.984Z,96412.00
2023-01-29T10:36:44.161Z,96408.00
2023-01-29T10:40:51.802Z,96410.00
2023-01-29T10:45:07.540Z,96404.00
2023-01-29T10:49:23.165Z,96398.00
2023-01-29T10:53:39.892Z,96397.00
2023-01-29T10:57:56.627Z,96415.00
2023-01-29T11:02:03.251Z,96403.00
2023-01-29T11:06:16.089Z,96394.00
2023-01-29T11:10:23.403Z,96387.00
2023-01-29T11:14:29.719Z,96384.00
2023-01-29T11:18:54.268Z,96377.00
2023-01-29T11:22:58.037Z,96377.00
2023-01-29T11:27:01.490Z,96382.00
2023-01-29T11:31:04.707Z,96378.00
2023-01-29T11:35:22.485Z,96368.00
2023-01-29T11:39:27.431Z,96368.00
2023-01-29T11:43:31.859Z,96370.00
2023-01-29T11:47:34.680Z,96356.00
2023-01-29T11:51:40.290Z,96349.00
2023-01-29T11:55:50.802Z,96326.00
2023-01-29T11:59:54.963Z,96316.00
2023-01-29T12:03:58.042Z,96298.00
2023-01-29T12:08:03.688Z,96289.00
2023-01-29T12:12:27.797Z,96291.00
2023-01-29T12:16:34.310Z,96291.00
2023-01-29T12:20:42.058Z,96300.00
2023-01-29T12:24:56.330Z,96306.00
2023-01-29T12:29:18.899Z,96309.00
2023-01-29T12:33:32.079Z,96314.00
2023-01-29T12:37:41.512Z,96303.00
2023-01-29T12:41:49.864Z,96291.00
2023-01-29T12:45:58.131Z,96298.00
2023-01-29T12:50:06.741Z,96287.00
2023-01-29T12:54:13.642Z,96288.00
2023-01-29T12:58:23.387Z,96276.00
2023-01-29T13:02:34.210Z,96264.00
2023-01-29T13:06:42.403Z,96255.00
2023-01-29T13:10:49.936Z,96248.00
2023-01-29T13:14:58.731Z,96233.00
2023-01-29T13:19:04.747Z,96228.00
2023-01-29T13:23:18.017Z,96215.00
2023-01-29T13:27:27.376Z,96214.00
2023-01-29T13:31:35.224Z,96229.00
2023-01-29T13:35:40.775Z,96217.00
2023-01-29T13:39:48.938Z,96221.00
2023-01-29T13:43:51.813Z,96220.00
2023-01-29T13:48:10.338Z,96202.00
2023-01-29T13:52:24.551Z,96206.00
2023-01-29T13:56:43.048Z,96215.00
2023-01-29T14:00:50.279Z,96198.00
2023-01-29T14:05:34.327Z,96196.00
2023-01-29T14:10:13.999Z,96203.00
2023-01-29T14:14:50.599Z,96189.00
2023-01-29T14:18:58.722Z,96174.00
2023-01-29T14:23:04.145Z,96176.00
2023-01-29T14:27:07.079Z,96185.00
2023-01-29T14:31:11.405Z,96182.00
2023-01-29T14:35:20.215Z,96192.00
2023-01-29T14:39:32.986Z,96190.00
2023-01-29T14:43:35.857Z,96205.00
2023-01-29T14:48:19.373Z,96204.00
2023-01-29T14:52:25.779Z,96220.00
2023-01-29T14:56:35.147Z,96206.00
2023-01-29T15:00:39.897Z,96200.00
2023-01-29T15:04:47.492Z,96201.00
2023-01-29T15:08:56.631Z,96195.00
2023-01-29T15:13:05.824Z,96192.00
2023-01-29T15:17:19.533Z,96189.00
2023-01-29T15:21:22.320Z,96183.00
2023-01-29T15:25:25.667Z,96193.00
2023-01-29T15:29:30.473Z,96201.00
2023-01-29T15:33:34.662Z,96196.00
2023-01-29T15:37:38.195Z,96203.00
2023-01-29T15:41:40.979Z,96196.00
2023-01-29T15:45:45.163Z,96197.00
2023-01-29T15:49:49.065Z,96210.00
2023-01-29T15:53:53.874Z,96206.00
2023-01-29T15:57:57.460Z,96212.00
2023-01-29T16:02:19.923Z,96194.00
2023-01-29T16:06:25.149Z,96201.00
2023-01-29T16:10:31.165Z,96218.00
2023-01-29T16:14:34.997Z,96214.00
2023-01-29T16:18:54.217Z,96208.00
2023-01-29T16:23:01.956Z,96204.00
2023-01-29T16:27:12.990Z,96219.00
2023-01-29T16:31:23.277Z,96209.00
2023-01-29T16:35:27.385Z,96221.00
2023-01-29T16:39:33.948Z,96233.00
2023-01-29T16:43:55.802Z,96234.00
2023-01-29T16:48:02.621Z,96227.00
2023-01-29T16:52:19.500Z,96241.00
2023-01-29T16:56:23.605Z,96245.00
2023-01-29T17:00:28.569Z,96243.00
2023-01-29T17:04:31.532Z,96250.00
2023-01-29T17:08:36.216Z,96259.00
2023-01-29T17:12:39.847Z,96248.00
2023-01-29T17:16:51.370Z,96248.00
2023-01-29T17:20:54.134Z,96253.00
2023-01-29T17:24:58.299Z,96258.00
2023-01-29T17:29:01.117Z,96252.00
2023-01-29T17:33:11.891Z,96268.00
2023-01-29T17:37:15.832Z,96256.00
2023-01-29T17:41:25.772Z,96241.00
2023-01-29T17:45:28.914Z,96250.00
2023-01-29T17:49:33.522Z,96261.00
2023-01-29T17:53:45.385Z,96246.00
2023-01-29T17:57:50.769Z,96258.00
2023-01-29T18:01:54.148Z,96256.00
2023-01-29T18:05:56.966Z,96251.00
2023-01-29T18:09:59.744Z,96245.00
2023-01-29T18:14:13.614Z,96244.00
2023-01-29T18:18:20.348Z,96243.00
2023-01-29T18:22:23.040Z,96244.00
2023-01-29T18:26:25.953Z,96230.00
2023-01-29T18:30:30.774Z,96242.00
2023-01-29T18:34:34.071Z,96235.00
2023-01-29T18:38:36.849Z,96245.00
2023-01-29T18:42:40.239Z,96219.00
2023-01-29T18:46:44.351Z,96235.00
2023-01-29T18:50:47.140Z,96229.00
2023-01-29T18:54:49.922Z,96234.00
2023-01-29T18:58:56.139Z,96243.00
2023-01-29T19:03:00.785Z,96234.00
2023-01-29T19:07:04.693Z,96240.00
2023-01-29T19:11:08.883Z,96233.00
2023-01-29T19:15:12.280Z,96223.00
2023-01-29T19:19:16.739Z,96227.00
2023-01-29T19:23:19.747Z,96227.00
2023-01-29T19:27:22.541Z,96231.00
2023-01-29T19:31:26.012Z,96228.00
2023-01-29T19:35:30.285Z,96234.00
2023-01-29T19:39:33.994Z,96239.00
2023-01-29T19:43:38.137Z,96202.00
2023-01-29T19:47:43.392Z,96209.00
2023-01-29T19:51:47.592Z,96200.00
2023-01-29T19:55:58.691Z,96197.00
2023-01-29T20:00:03.004Z,96178.00
2023-01-29T20:04:07.067Z,96190.00
2023-01-29T20:08:11.245Z,96191.00
2023-01-29T20:12:14.496Z,96180.00
2023-01-29T20:16:18.026Z,96189.00
2023-01-29T20:20:21.022Z,96184.00
2023-01-29T20:24:28.910Z,96188.00
2023-01-29T20:28:31.689Z,96180.00
2023-01-29T20:32:35.257Z,96186.00
2023-01-29T20:36:38.049Z,96184.00
2023-01-29T20:40:42.130Z,96184.00
2023-01-29T20:44:44.875Z,96178.00
2023-01-29T20:48:49.044Z,96174.00
2023-01-29T20:52:52.866Z,96165.00
2023-01-29T20:56:57.377Z,96167.00
2023-01-29T21:01:00.386Z,96162.00
2023-01-29T21:05:03.389Z,96165.00
2023-01-29T21:09:06.231Z,96138.00
2023-01-29T21:13:10.370Z,96167.00
2023-01-29T21:17:13.146Z,96158.00
2023-01-29T21:21:15.913Z,96163.00
2023-01-29T21:25:20.702Z,96151.00
2023-01-29T21:29:24.856Z,96155.00
2023-01-29T21:33:27.656Z,96156.00
2023-01-29T21:37:30.630Z,96164.00
2023-01-29T21:41:47.291Z,96161.00
2023-01-29T21:45:56.397Z,96145.00
2023-01-29T21:49:59.246Z,96165.00
2023-01-29T21:54:03.474Z,96157.00
2023-01-29T21:58:06.284Z,96157.00
2023-01-29T22:02:15.040Z,96147.00
2023-01-29T22:06:17.932Z,96141.00
2023-01-29T22:10:21.129Z,96147.00
2023-01-29T22:14:24.283Z,96146.00
2023-01-29T22:18:28.474Z,96152.00
2023-01-29T22:22:31.276Z,96152.00
2023-01-29T22:26:34.373Z,96144.00
2023-01-29T22:30:37.373Z,96132.00
2023-01-29T22:34:41.528Z,96145.00
2023-01-29T22:38:44.446Z,96116.00
2023-01-29T22:42:47.255Z,96112.00
2023-01-29T22:46:50.387Z,96106.00
2023-01-29T22:51:09.710Z,96102.00
2023-01-29T22:55:14.156Z,96093.00
2023-01-29T22:59:16.931Z,96073.00
2023-01-29T23:03:19.706Z,96058.00
2023-01-29T23:07:23.867Z,96063.00
2023-01-29T23:11:26.710Z,96053.00
2023-01-29T23:15:29.532Z,96046.00
2023-01-29T23:19:32.357Z,96056.00
2023-01-29T23:23:38.032Z,96051.00
2023-01-29T23:27:40.809Z,96041.00
2023-01-29T23:31:43.673Z,96036.00
2023-01-29T23:35:46.600Z,96037.00
2023-01-29T23:39:53.262Z,96040.00
2023-01-29T23:43:56.099Z,96029.00
2023-01-29T23:47:58.866Z,96024.00
2023-01-29T23:52:05.015Z,96020.00
2023-01-29T23:56:09.380Z,96014.00
